Terminal Aerodrome Forecast
Issued by NWS

Home | Current Version | Previous Version | Text Only | Print | Product List | Glossary On
Versions: 1 2 3 4 5 6 7 8 9 10 11 12 13 14
000
FTUS46 KSTO 242337
TAFSAC
TAF
KSAC 242337Z 2500/2524 21012G18KT P6SM SCT030 OVC050
     FM250300 22010KT P6SM OVC100
     FM251100 33010KT P6SM OVC100
      TEMPO 2512/2515 OVC035=

USA.gov is the U.S. government's official web portal to all federal, state and local government web resources and services.